createdAt,value
2022-11-15T00:00:55.670Z,94.77
2022-11-15T00:01:54.572Z,94.67
2022-11-15T00:02:54.942Z,94.56
2022-11-15T00:03:57.039Z,94.36
2022-11-15T00:04:57.211Z,94.51
2022-11-15T00:05:55.712Z,94.56
2022-11-15T00:06:57.961Z,94.05
2022-11-15T00:07:56.533Z,94.26
2022-11-15T00:08:58.471Z,94.26
2022-11-15T00:09:58.727Z,94.67
2022-11-15T00:10:58.126Z,94.36
2022-11-15T00:11:57.477Z,94.05
2022-11-15T00:12:59.661Z,94.36
2022-11-15T00:13:59.854Z,94.05
2022-11-15T00:14:58.350Z,93.70
2022-11-15T00:15:58.867Z,93.95
2022-11-15T00:16:58.886Z,94.15
2022-11-15T00:17:59.182Z,93.95
2022-11-15T00:19:01.367Z,94.40
2022-11-15T00:19:59.742Z,94.67
2022-11-15T00:21:01.933Z,94.05
2022-11-15T00:22:00.357Z,94.05
2022-11-15T00:23:00.548Z,94.15
2022-11-15T00:24:00.852Z,93.95
2022-11-15T00:25:01.155Z,94.05
2022-11-15T00:26:03.330Z,94.20
2022-11-15T00:27:01.701Z,94.40
2022-11-15T00:28:01.998Z,94.60
2022-11-15T00:29:02.293Z,94.81
2022-11-15T00:30:02.596Z,94.60
2022-11-15T00:31:05.792Z,94.56
2022-11-15T00:32:03.211Z,94.46
2022-11-15T00:33:03.503Z,94.60
2022-11-15T00:34:03.857Z,94.81
2022-11-15T00:35:05.988Z,94.81
2022-11-15T00:36:04.363Z,94.92
2022-11-15T00:37:04.642Z,94.92
2022-11-15T00:38:04.938Z,94.77
2022-11-15T00:39:07.119Z,94.67
2022-11-15T00:40:07.317Z,94.15
2022-11-15T00:41:09.631Z,94.21
2022-11-15T00:42:06.107Z,93.95
2022-11-15T00:43:06.435Z,94.15
2022-11-15T00:44:06.703Z,94.05
2022-11-15T00:45:08.886Z,94.15
2022-11-15T00:46:07.252Z,94.11
2022-11-15T00:47:09.500Z,94.01
2022-11-15T00:48:07.875Z,93.90
2022-11-15T00:49:08.152Z,94.15
2022-11-15T00:50:14.845Z,94.36
2022-11-15T00:51:08.711Z,94.15
2022-11-15T00:52:09.005Z,94.46
2022-11-15T00:53:09.340Z,94.21
2022-11-15T00:54:11.479Z,94.11
2022-11-15T00:55:09.965Z,94.11
2022-11-15T00:56:10.264Z,93.90
2022-11-15T00:57:10.554Z,93.80
2022-11-15T00:58:10.850Z,94.11
2022-11-15T00:59:11.134Z,94.21
2022-11-15T01:00:14.329Z,94.11
2022-11-15T01:01:11.758Z,94.05
2022-11-15T01:02:12.025Z,94.26
2022-11-15T01:03:12.337Z,94.15
2022-11-15T01:04:12.625Z,94.31
2022-11-15T01:05:15.765Z,94.15
2022-11-15T01:06:13.155Z,94.36
2022-11-15T01:07:13.522Z,94.36
2022-11-15T01:08:13.799Z,94.26
2022-11-15T01:09:14.086Z,94.26
2022-11-15T01:10:17.237Z,94.36
2022-11-15T01:11:17.908Z,94.56
2022-11-15T01:12:14.926Z,93.95
2022-11-15T01:13:16.225Z,93.84
2022-11-15T01:14:17.703Z,94.15
2022-11-15T01:15:16.538Z,94.36
2022-11-15T01:16:17.946Z,94.46
2022-11-15T01:17:17.114Z,94.67
2022-11-15T01:18:17.536Z,94.67
2022-11-15T01:19:17.690Z,94.67
2022-11-15T01:20:17.157Z,94.87
2022-11-15T01:21:19.336Z,94.77
2022-11-15T01:22:17.700Z,94.77
2022-11-15T01:23:18.843Z,94.67
2022-11-15T01:24:18.315Z,94.77
2022-11-15T01:25:20.511Z,94.98
2022-11-15T01:26:18.867Z,94.87
2022-11-15T01:27:19.164Z,94.67
2022-11-15T01:28:21.466Z,94.46
2022-11-15T01:29:20.578Z,94.31
2022-11-15T01:30:23.382Z,94.01
2022-11-15T01:31:21.147Z,93.90
2022-11-15T01:32:21.563Z,94.15
2022-11-15T01:33:21.723Z,94.11
2022-11-15T01:34:24.169Z,93.80
2022-11-15T01:35:23.252Z,94.01
2022-11-15T01:36:21.746Z,94.21
2022-11-15T01:37:22.032Z,94.01
2022-11-15T01:38:22.325Z,93.59
2022-11-15T01:39:22.610Z,93.49
2022-11-15T01:40:24.807Z,93.80
2022-11-15T01:41:24.969Z,94.01
2022-11-15T01:42:25.157Z,94.56
2022-11-15T01:43:25.330Z,94.21
2022-11-15T01:44:26.008Z,94.26
2022-11-15T01:45:26.239Z,94.21
2022-11-15T01:46:24.723Z,94.05
2022-11-15T01:47:26.899Z,94.01
2022-11-15T01:48:27.037Z,94.11
2022-11-15T01:49:27.332Z,93.90
2022-11-15T01:50:27.401Z,93.95
2022-11-15T01:51:28.347Z,94.46
2022-11-15T01:52:26.481Z,94.36
2022-11-15T01:53:28.880Z,94.31
2022-11-15T01:54:28.842Z,93.95
2022-11-15T01:55:29.035Z,94.26
2022-11-15T01:56:29.732Z,94.46
2022-11-15T01:57:29.913Z,94.56
2022-11-15T01:58:28.410Z,94.36
2022-11-15T01:59:28.737Z,94.11
2022-11-15T02:00:30.936Z,94.11
2022-11-15T02:01:29.334Z,93.95
2022-11-15T02:02:29.644Z,94.36
2022-11-15T02:03:30.435Z,94.21
2022-11-15T02:04:30.254Z,94.21
2022-11-15T02:05:33.893Z,94.05
2022-11-15T02:06:30.801Z,94.31
2022-11-15T02:07:33.036Z,94.11
2022-11-15T02:08:31.402Z,94.01
2022-11-15T02:09:31.685Z,94.15
2022-11-15T02:10:33.875Z,94.21
2022-11-15T02:11:32.238Z,94.46
2022-11-15T02:12:34.480Z,94.31
2022-11-15T02:13:33.172Z,94.26
2022-11-15T02:14:33.178Z,94.21
2022-11-15T02:15:35.353Z,93.90
2022-11-15T02:16:33.721Z,93.70
2022-11-15T02:17:35.911Z,93.90
2022-11-15T02:18:36.093Z,93.80
2022-11-15T02:19:34.583Z,93.55
2022-11-15T02:20:34.873Z,93.39
2022-11-15T02:21:37.054Z,93.49
2022-11-15T02:22:35.420Z,93.29
2022-11-15T02:23:37.611Z,93.39
2022-11-15T02:24:37.829Z,93.29
2022-11-15T02:25:36.897Z,93.59
2022-11-15T02:26:38.508Z,93.49
2022-11-15T02:27:36.873Z,93.90
2022-11-15T02:28:37.173Z,93.95
2022-11-15T02:29:39.332Z,93.95
2022-11-15T02:30:37.702Z,93.90
2022-11-15T02:31:38.002Z,93.90
2022-11-15T02:32:40.182Z,93.84
2022-11-15T02:33:38.545Z,94.05
2022-11-15T02:34:38.842Z,93.84
2022-11-15T02:35:39.133Z,94.05
2022-11-15T02:36:39.420Z,93.90
2022-11-15T02:37:41.608Z,93.95
2022-11-15T02:38:39.980Z,93.90
2022-11-15T02:39:40.266Z,93.70
2022-11-15T02:40:40.566Z,93.70
2022-11-15T02:41:40.858Z,93.49
2022-11-15T02:42:43.046Z,93.59
2022-11-15T02:43:41.408Z,93.39
2022-11-15T02:44:43.602Z,93.84
2022-11-15T02:45:41.968Z,93.84
2022-11-15T02:46:42.257Z,94.26
2022-11-15T02:47:44.417Z,94.11
2022-11-15T02:48:42.776Z,93.59
2022-11-15T02:49:43.066Z,93.29
2022-11-15T02:50:45.345Z,93.39
2022-11-15T02:51:43.686Z,93.39
2022-11-15T02:52:43.876Z,93.39
2022-11-15T02:53:46.020Z,93.49
2022-11-15T02:54:44.426Z,93.39
2022-11-15T02:55:47.565Z,93.49
2022-11-15T02:56:44.968Z,93.49
2022-11-15T02:57:48.108Z,93.29
2022-11-15T02:58:46.328Z,93.59
2022-11-15T02:59:47.688Z,93.29
2022-11-15T03:00:47.908Z,93.84
2022-11-15T03:01:46.363Z,93.80
2022-11-15T03:02:46.826Z,93.84
2022-11-15T03:03:46.947Z,93.80
2022-11-15T03:04:48.015Z,93.59
2022-11-15T03:05:49.425Z,93.59
2022-11-15T03:06:51.142Z,93.49
2022-11-15T03:07:48.026Z,93.59
2022-11-15T03:08:51.169Z,93.64
2022-11-15T03:09:49.370Z,94.05
2022-11-15T03:10:50.827Z,94.01
2022-11-15T03:11:51.999Z,93.90
2022-11-15T03:12:50.363Z,93.49
2022-11-15T03:13:51.722Z,93.49
2022-11-15T03:14:50.938Z,93.59
2022-11-15T03:15:51.354Z,93.80
2022-11-15T03:16:52.596Z,93.59
2022-11-15T03:17:50.998Z,93.49
2022-11-15T03:18:53.170Z,93.64
2022-11-15T03:19:51.535Z,93.64
2022-11-15T03:20:53.725Z,93.54
2022-11-15T03:21:53.082Z,93.95
2022-11-15T03:22:55.236Z,93.84
2022-11-15T03:23:54.440Z,94.15
2022-11-15T03:24:53.060Z,93.64
2022-11-15T03:25:55.247Z,93.74
2022-11-15T03:26:54.576Z,93.84
2022-11-15T03:27:55.805Z,93.64
2022-11-15T03:28:54.968Z,93.99
2022-11-15T03:29:57.331Z,94.40
2022-11-15T03:30:56.528Z,94.26
2022-11-15T03:31:56.704Z,94.09
2022-11-15T03:32:55.320Z,94.40
2022-11-15T03:33:55.616Z,94.40
2022-11-15T03:34:55.915Z,94.30
2022-11-15T03:35:56.203Z,94.51
2022-11-15T03:36:56.590Z,94.60
2022-11-15T03:37:58.341Z,94.40
2022-11-15T03:38:58.991Z,94.60
2022-11-15T03:39:59.179Z,94.51
2022-11-15T03:40:59.346Z,94.60
2022-11-15T03:41:59.550Z,94.30
2022-11-15T03:43:00.208Z,94.30
2022-11-15T03:43:58.590Z,94.51
2022-11-15T03:45:00.767Z,94.60
2022-11-15T03:45:59.130Z,94.51
2022-11-15T03:47:01.325Z,94.71
2022-11-15T03:47:59.686Z,94.85
2022-11-15T03:49:01.881Z,95.06
2022-11-15T03:50:02.073Z,95.17
2022-11-15T03:51:02.256Z,95.06
2022-11-15T03:52:02.435Z,95.17
2022-11-15T03:53:03.134Z,95.27
2022-11-15T03:54:03.351Z,95.42
2022-11-15T03:55:03.503Z,95.42
2022-11-15T03:56:03.676Z,95.62
2022-11-15T03:57:04.361Z,95.52
2022-11-15T03:58:04.557Z,95.73
2022-11-15T03:59:03.067Z,95.93
2022-11-15T04:00:05.238Z,95.83
2022-11-15T04:01:03.649Z,95.42
2022-11-15T04:02:05.797Z,95.62
2022-11-15T04:03:04.171Z,95.73
2022-11-15T04:04:06.351Z,95.73
2022-11-15T04:05:04.713Z,95.62
2022-11-15T04:06:06.902Z,95.73
2022-11-15T04:07:05.298Z,95.62
2022-11-15T04:08:05.562Z,95.73
2022-11-15T04:09:05.848Z,95.62
2022-11-15T04:10:06.154Z,95.98
2022-11-15T04:11:08.332Z,95.98
2022-11-15T04:12:06.702Z,96.28
2022-11-15T04:13:08.891Z,96.18
2022-11-15T04:14:07.265Z,96.18
2022-11-15T04:15:07.553Z,96.28
2022-11-15T04:16:07.852Z,96.08
2022-11-15T04:17:08.161Z,96.18
2022-11-15T04:18:10.323Z,96.18
2022-11-15T04:19:08.693Z,96.39
2022-11-15T04:20:08.994Z,96.08
2022-11-15T04:21:10.275Z,96.28
2022-11-15T04:22:11.461Z,96.08
2022-11-15T04:23:09.971Z,96.18
2022-11-15T04:24:12.173Z,96.12
2022-11-15T04:25:10.526Z,96.44
2022-11-15T04:26:10.816Z,96.33
2022-11-15T04:27:11.098Z,96.28
2022-11-15T04:28:13.284Z,96.08
2022-11-15T04:29:11.644Z,96.12
2022-11-15T04:30:11.938Z,96.23
2022-11-15T04:31:12.221Z,96.23
2022-11-15T04:32:12.506Z,96.33
2022-11-15T04:33:14.712Z,96.44
2022-11-15T04:34:13.082Z,96.44
2022-11-15T04:35:13.380Z,96.84
2022-11-15T04:36:13.674Z,96.95
2022-11-15T04:37:13.971Z,96.84
2022-11-15T04:38:16.281Z,96.53
2022-11-15T04:39:14.638Z,96.44
2022-11-15T04:40:14.864Z,96.53
2022-11-15T04:41:17.050Z,96.64
2022-11-15T04:42:15.422Z,96.53
2022-11-15T04:43:15.704Z,96.69
2022-11-15T04:44:16.004Z,96.74
2022-11-15T04:45:16.302Z,96.74
2022-11-15T04:46:18.476Z,96.69
2022-11-15T04:47:16.840Z,96.69
2022-11-15T04:48:19.025Z,96.89
2022-11-15T04:49:17.388Z,96.53
2022-11-15T04:50:17.685Z,96.79
2022-11-15T04:51:17.947Z,96.69
2022-11-15T04:52:18.213Z,96.79
2022-11-15T04:53:20.404Z,96.69
2022-11-15T04:54:21.545Z,96.69
2022-11-15T04:55:20.775Z,96.89
2022-11-15T04:56:19.392Z,97.09
2022-11-15T04:57:19.688Z,96.99
2022-11-15T04:58:19.976Z,97.20
2022-11-15T04:59:22.179Z,97.20
2022-11-15T05:00:20.553Z,97.09
2022-11-15T05:01:22.822Z,97.30
2022-11-15T05:02:22.911Z,96.79
2022-11-15T05:03:21.777Z,96.89
2022-11-15T05:04:24.580Z,96.79
2022-11-15T05:05:21.963Z,96.99
2022-11-15T05:06:24.342Z,97.09
2022-11-15T05:07:25.348Z,96.79
2022-11-15T05:08:23.782Z,96.99
2022-11-15T05:09:24.026Z,96.99
2022-11-15T05:10:24.186Z,97.09
2022-11-15T05:11:26.138Z,96.99
2022-11-15T05:12:25.850Z,96.79
2022-11-15T05:13:25.169Z,97.09
2022-11-15T05:14:25.342Z,97.09
2022-11-15T05:15:26.700Z,96.99
2022-11-15T05:16:25.923Z,96.58
2022-11-15T05:17:27.259Z,96.58
2022-11-15T05:18:26.045Z,97.04
2022-11-15T05:19:25.890Z,96.99
2022-11-15T05:20:26.236Z,96.79
2022-11-15T05:21:28.462Z,96.79
2022-11-15T05:22:26.709Z,96.73
2022-11-15T05:23:27.802Z,96.99
2022-11-15T05:24:30.483Z,96.83
2022-11-15T05:25:27.504Z,97.04
2022-11-15T05:26:29.691Z,96.94
2022-11-15T05:27:28.054Z,96.94
2022-11-15T05:28:28.363Z,96.79
2022-11-15T05:29:28.647Z,96.69
2022-11-15T05:30:30.864Z,96.48
2022-11-15T05:31:30.107Z,96.48
2022-11-15T05:32:30.266Z,96.58
2022-11-15T05:33:31.987Z,96.58
2022-11-15T05:34:30.040Z,96.58
2022-11-15T05:35:30.337Z,96.79
2022-11-15T05:36:32.559Z,96.79
2022-11-15T05:37:32.749Z,96.83
2022-11-15T05:38:32.944Z,96.89
2022-11-15T05:39:33.135Z,96.94
2022-11-15T05:40:33.840Z,96.94
2022-11-15T05:41:34.001Z,96.94
2022-11-15T05:42:32.490Z,97.14
2022-11-15T05:43:34.671Z,97.34
2022-11-15T05:44:34.869Z,97.25
2022-11-15T05:45:35.048Z,97.09
2022-11-15T05:46:35.248Z,96.79
2022-11-15T05:47:35.916Z,96.58
2022-11-15T05:48:36.114Z,96.58
2022-11-15T05:49:36.297Z,96.58
2022-11-15T05:50:36.610Z,96.69
2022-11-15T05:51:37.179Z,96.99
2022-11-15T05:52:37.370Z,96.79
2022-11-15T05:53:37.557Z,96.89
2022-11-15T05:54:38.013Z,96.95
2022-11-15T05:55:38.448Z,96.74
2022-11-15T05:56:36.816Z,96.84
2022-11-15T05:57:38.994Z,96.84
2022-11-15T05:58:39.178Z,96.84
2022-11-15T05:59:37.666Z,96.74
2022-11-15T06:00:39.861Z,96.53
2022-11-15T06:01:38.273Z,96.49
2022-11-15T06:02:40.431Z,96.33
2022-11-15T06:03:40.601Z,96.39
2022-11-15T06:04:39.100Z,96.28
2022-11-15T06:05:42.712Z,96.18
2022-11-15T06:06:39.734Z,95.87
2022-11-15T06:07:40.021Z,95.98
2022-11-15T06:08:42.211Z,96.28
2022-11-15T06:09:40.573Z,96.28
2022-11-15T06:10:41.723Z,95.87
2022-11-15T06:11:41.194Z,95.87
2022-11-15T06:12:43.382Z,96.18
2022-11-15T06:13:41.751Z,96.28
2022-11-15T06:14:42.041Z,96.59
2022-11-15T06:15:42.334Z,96.49
2022-11-15T06:16:42.629Z,96.18
2022-11-15T06:17:44.819Z,95.83
2022-11-15T06:18:45.008Z,95.87
2022-11-15T06:19:43.757Z,96.14
2022-11-15T06:20:43.768Z,95.83
2022-11-15T06:21:44.170Z,95.67
2022-11-15T06:22:44.486Z,96.03
2022-11-15T06:23:46.523Z,95.83
2022-11-15T06:24:44.920Z,95.83
2022-11-15T06:25:45.535Z,95.62
2022-11-15T06:26:45.491Z,95.73
2022-11-15T06:27:46.755Z,95.62
2022-11-15T06:28:49.483Z,95.62
2022-11-15T06:29:48.179Z,95.52
2022-11-15T06:30:51.931Z,95.42
2022-11-15T06:31:48.008Z,95.58
2022-11-15T06:32:47.250Z,95.37
2022-11-15T06:33:49.433Z,95.37
2022-11-15T06:34:47.814Z,95.27
2022-11-15T06:35:48.115Z,95.37
2022-11-15T06:36:48.765Z,95.27
2022-11-15T06:37:48.745Z,95.37
2022-11-15T06:38:50.934Z,95.17
2022-11-15T06:39:49.312Z,95.37
2022-11-15T06:40:50.487Z,95.23
2022-11-15T06:41:49.852Z,95.02
2022-11-15T06:42:50.171Z,94.92
2022-11-15T06:43:52.365Z,94.92
2022-11-15T06:44:50.752Z,94.92
2022-11-15T06:45:52.937Z,94.71
2022-11-15T06:46:51.326Z,94.92
2022-11-15T06:47:51.637Z,95.02
2022-11-15T06:48:53.824Z,94.71
2022-11-15T06:49:52.219Z,94.81
2022-11-15T06:50:55.355Z,94.92
2022-11-15T06:51:52.884Z,95.23
2022-11-15T06:52:56.510Z,94.87
2022-11-15T06:53:53.544Z,94.87
2022-11-15T06:54:53.866Z,94.67
2022-11-15T06:55:55.675Z,94.98
2022-11-15T06:56:56.365Z,94.77
2022-11-15T06:57:54.751Z,94.56
2022-11-15T06:58:55.279Z,94.36
2022-11-15T06:59:57.277Z,94.56
2022-11-15T07:00:56.522Z,94.26
2022-11-15T07:01:56.794Z,94.56
2022-11-15T07:02:57.136Z,94.42
2022-11-15T07:03:57.468Z,94.42
2022-11-15T07:04:57.793Z,94.31
2022-11-15T07:06:04.207Z,94.52
2022-11-15T07:06:58.481Z,94.31
2022-11-15T07:07:59.585Z,94.37
2022-11-15T07:08:59.750Z,94.07
2022-11-15T07:09:59.927Z,94.17
2022-11-15T07:11:00.094Z,94.17
2022-11-15T07:12:06.222Z,93.76
2022-11-15T07:13:00.207Z,93.92
2022-11-15T07:14:01.378Z,92.99
2022-11-15T07:15:01.538Z,93.20
2022-11-15T07:16:01.714Z,93.65
2022-11-15T07:17:01.903Z,93.65
2022-11-15T07:18:02.591Z,93.82
2022-11-15T07:19:02.775Z,92.99
2022-11-15T07:20:02.963Z,93.71
2022-11-15T07:21:01.634Z,93.20
2022-11-15T07:22:03.806Z,93.40
2022-11-15T07:23:03.966Z,94.02
2022-11-15T07:24:04.123Z,93.16
2022-11-15T07:25:02.656Z,93.20
2022-11-15T07:26:03.843Z,93.16
2022-11-15T07:27:05.058Z,93.26
2022-11-15T07:28:05.225Z,92.29
2022-11-15T07:29:03.784Z,92.19
2022-11-15T07:30:05.980Z,92.19
2022-11-15T07:31:05.378Z,92.03
2022-11-15T07:32:06.563Z,92.74
2022-11-15T07:33:06.811Z,92.60
2022-11-15T07:34:06.918Z,92.29
2022-11-15T07:35:07.478Z,91.78
2022-11-15T07:36:05.758Z,91.67
2022-11-15T07:37:06.092Z,91.99
2022-11-15T07:38:09.231Z,92.40
2022-11-15T07:39:08.456Z,92.44
2022-11-15T07:40:08.657Z,92.85
2022-11-15T07:41:10.337Z,93.36
2022-11-15T07:42:07.617Z,93.52
2022-11-15T07:43:09.818Z,92.50
2022-11-15T07:44:10.198Z,92.50
2022-11-15T07:45:10.196Z,92.08
2022-11-15T07:46:10.693Z,92.70
2022-11-15T07:47:10.578Z,93.05
2022-11-15T07:48:11.262Z,93.05
2022-11-15T07:49:11.451Z,93.05
2022-11-15T07:50:11.640Z,92.85
2022-11-15T07:51:14.140Z,93.36
2022-11-15T07:52:10.531Z,93.36
2022-11-15T07:53:12.732Z,93.61
2022-11-15T07:54:11.121Z,94.12
2022-11-15T07:55:11.448Z,93.82
2022-11-15T07:56:13.633Z,93.67
2022-11-15T07:57:12.040Z,93.98
2022-11-15T07:58:12.810Z,93.26
2022-11-15T07:59:12.688Z,93.46
2022-11-15T08:00:13.023Z,93.40
2022-11-15T08:01:13.550Z,93.71
2022-11-15T08:02:13.736Z,93.92
2022-11-15T08:03:13.952Z,94.12
2022-11-15T08:04:14.277Z,93.98
2022-11-15T08:05:14.608Z,93.98
2022-11-15T08:06:16.780Z,93.82
2022-11-15T08:07:17.026Z,94.08
2022-11-15T08:08:17.160Z,93.87
2022-11-15T08:09:15.812Z,94.18
2022-11-15T08:10:16.143Z,93.63
2022-11-15T08:11:17.470Z,93.36
2022-11-15T08:12:18.653Z,94.08
2022-11-15T08:13:18.977Z,93.73
2022-11-15T08:14:17.324Z,93.32
2022-11-15T08:15:17.647Z,93.36
2022-11-15T08:16:19.832Z,93.77
2022-11-15T08:17:18.244Z,94.18
2022-11-15T08:18:18.575Z,94.70
2022-11-15T08:19:18.899Z,94.80
2022-11-15T08:20:19.229Z,94.55
2022-11-15T08:21:21.601Z,94.34
2022-11-15T08:22:19.862Z,94.04
2022-11-15T08:23:22.032Z,94.14
2022-11-15T08:24:20.430Z,94.14
2022-11-15T08:25:20.757Z,94.45
2022-11-15T08:26:21.088Z,94.10
2022-11-15T08:27:21.449Z,93.89
2022-11-15T08:28:23.649Z,94.20
2022-11-15T08:29:23.763Z,93.99
2022-11-15T08:30:22.297Z,94.10
2022-11-15T08:31:22.615Z,94.20
2022-11-15T08:32:22.943Z,94.51
2022-11-15T08:33:23.270Z,94.61
2022-11-15T08:34:25.455Z,94.51
2022-11-15T08:35:29.007Z,94.15
2022-11-15T08:36:24.092Z,94.05
2022-11-15T08:37:24.436Z,93.95
2022-11-15T08:38:26.595Z,94.05
2022-11-15T08:39:26.775Z,94.20
2022-11-15T08:40:27.935Z,94.26
2022-11-15T08:41:27.146Z,94.15
2022-11-15T08:42:28.779Z,94.36
2022-11-15T08:43:27.035Z,94.05
2022-11-15T08:44:27.387Z,94.15
2022-11-15T08:45:26.775Z,93.95
2022-11-15T08:46:27.104Z,94.26
2022-11-15T08:47:29.290Z,94.15
2022-11-15T08:48:27.700Z,94.01
2022-11-15T08:49:28.027Z,93.54
2022-11-15T08:50:31.170Z,93.64
2022-11-15T08:51:28.584Z,94.05
2022-11-15T08:52:28.915Z,93.95
2022-11-15T08:53:30.173Z,93.95
2022-11-15T08:54:30.530Z,94.05
2022-11-15T08:55:31.755Z,93.95
2022-11-15T08:56:31.117Z,94.26
2022-11-15T08:57:31.337Z,93.80
2022-11-15T08:58:32.969Z,93.74
2022-11-15T08:59:32.100Z,93.70
2022-11-15T09:00:33.348Z,93.49
2022-11-15T09:01:33.663Z,93.70
2022-11-15T09:02:32.075Z,93.70
2022-11-15T09:03:32.411Z,93.39
2022-11-15T09:04:32.739Z,93.44
2022-11-15T09:05:33.086Z,93.54
2022-11-15T09:06:34.279Z,93.70
2022-11-15T09:07:34.534Z,93.60
2022-11-15T09:08:51.074Z,93.60
2022-11-15T09:09:36.917Z,93.60
2022-11-15T09:10:36.111Z,93.80
2022-11-15T09:11:37.807Z,93.60
2022-11-15T09:12:35.104Z,93.80
2022-11-15T09:13:35.429Z,93.80
2022-11-15T09:14:36.622Z,93.49
2022-11-15T09:15:39.262Z,93.55
2022-11-15T09:16:36.998Z,93.29
2022-11-15T09:17:36.639Z,93.35
2022-11-15T09:18:38.840Z,93.04
2022-11-15T09:19:39.027Z,92.43
2022-11-15T09:20:39.213Z,93.08
2022-11-15T09:21:39.390Z,93.25
2022-11-15T09:22:40.078Z,93.15
2022-11-15T09:23:40.266Z,93.15
2022-11-15T09:24:40.548Z,92.83
2022-11-15T09:25:40.650Z,93.04
2022-11-15T09:26:39.842Z,93.15
2022-11-15T09:27:41.532Z,93.04
2022-11-15T09:28:41.721Z,93.04
2022-11-15T09:29:40.254Z,92.83
2022-11-15T09:30:40.600Z,92.94
2022-11-15T09:31:42.791Z,92.83
2022-11-15T09:32:44.436Z,92.83
2022-11-15T09:33:41.485Z,92.94
2022-11-15T09:34:41.829Z,93.20
2022-11-15T09:35:44.002Z,92.79
2022-11-15T09:36:44.249Z,92.59
2022-11-15T09:37:42.656Z,93.15
2022-11-15T09:38:42.991Z,92.90
2022-11-15T09:39:43.333Z,93.00
2022-11-15T09:40:46.982Z,92.94
2022-11-15T09:41:43.967Z,93.04
2022-11-15T09:42:46.088Z,93.35
2022-11-15T09:43:44.538Z,93.66
2022-11-15T09:44:44.753Z,93.20
2022-11-15T09:45:45.090Z,93.10
2022-11-15T09:46:45.437Z,92.59
2022-11-15T09:47:47.618Z,92.65
2022-11-15T09:48:47.800Z,92.38
2022-11-15T09:49:46.366Z,92.69
2022-11-15T09:50:47.485Z,93.30
2022-11-15T09:51:48.011Z,93.30
2022-11-15T09:52:49.079Z,92.90
2022-11-15T09:54:24.096Z,92.75
2022-11-15T09:54:53.733Z,92.55
2022-11-15T09:55:49.009Z,92.44
2022-11-15T09:56:48.280Z,92.34
2022-11-15T09:57:50.459Z,92.44
2022-11-15T09:58:48.875Z,92.55
2022-11-15T09:59:49.216Z,92.24
2022-11-15T10:00:49.706Z,92.85
2022-11-15T10:01:51.907Z,92.55
2022-11-15T10:02:51.944Z,92.44
2022-11-15T10:03:50.477Z,92.75
2022-11-15T10:04:50.818Z,92.55
2022-11-15T10:05:53.019Z,92.14
2022-11-15T10:06:51.433Z,92.90
2022-11-15T10:07:53.593Z,93.04
2022-11-15T10:08:52.011Z,93.41
2022-11-15T10:09:52.236Z,92.90
2022-11-15T10:11:15.909Z,93.10
2022-11-15T10:11:53.892Z,93.20
2022-11-15T10:12:53.166Z,93.41
2022-11-15T10:13:53.566Z,92.79
2022-11-15T10:14:54.781Z,92.79
2022-11-15T10:15:55.955Z,92.90
2022-11-15T10:16:54.262Z,93.00
2022-11-15T10:17:54.467Z,93.10
2022-11-15T10:18:56.088Z,93.41
2022-11-15T10:19:55.162Z,92.90
2022-11-15T10:20:57.318Z,93.00
2022-11-15T10:21:55.603Z,93.20
2022-11-15T10:22:55.948Z,93.00
2022-11-15T10:23:56.295Z,92.79
2022-11-15T10:24:56.628Z,93.51
2022-11-15T10:26:03.699Z,93.51
2022-11-15T10:26:58.258Z,93.30
2022-11-15T10:27:57.528Z,93.30
2022-11-15T10:28:57.875Z,92.85
2022-11-15T10:29:58.214Z,92.59
2022-11-15T10:31:01.904Z,92.65
2022-11-15T10:32:01.559Z,92.79
2022-11-15T10:32:59.112Z,92.65
2022-11-15T10:34:01.297Z,92.79
2022-11-15T10:34:59.587Z,92.96
2022-11-15T10:36:00.825Z,92.65
2022-11-15T10:37:02.180Z,92.65
2022-11-15T10:38:02.342Z,92.55
2022-11-15T10:39:02.542Z,92.34
2022-11-15T10:40:01.081Z,92.34
2022-11-15T10:41:02.428Z,92.34
2022-11-15T10:42:09.578Z,92.44
2022-11-15T10:43:03.740Z,92.24
2022-11-15T10:44:02.164Z,92.85
2022-11-15T10:45:05.290Z,92.75
2022-11-15T10:46:24.677Z,92.75
2022-11-15T10:47:04.901Z,93.06
2022-11-15T10:48:04.293Z,92.75
2022-11-15T10:49:05.492Z,92.96
2022-11-15T10:50:04.854Z,92.71
2022-11-15T10:51:06.162Z,92.75
2022-11-15T10:52:05.412Z,92.96
2022-11-15T10:53:05.597Z,93.30
2022-11-15T10:54:10.411Z,93.37
2022-11-15T10:55:06.341Z,93.62
2022-11-15T10:56:07.546Z,93.57
2022-11-15T10:57:05.948Z,93.37
2022-11-15T10:58:06.282Z,93.47
2022-11-15T10:59:09.439Z,93.57
2022-11-15T11:00:08.657Z,93.26
2022-11-15T11:01:08.236Z,93.06
2022-11-15T11:02:07.470Z,93.26
2022-11-15T11:03:07.822Z,93.37
2022-11-15T11:04:09.003Z,93.51
2022-11-15T11:05:08.412Z,93.77
2022-11-15T11:06:10.599Z,93.37
2022-11-15T11:07:10.771Z,93.16
2022-11-15T11:08:10.936Z,92.96
2022-11-15T11:09:09.593Z,93.47
2022-11-15T11:10:36.246Z,93.47
2022-11-15T11:11:11.170Z,93.32
2022-11-15T11:12:12.342Z,93.01
2022-11-15T11:13:12.516Z,92.85
2022-11-15T11:14:11.044Z,93.26
2022-11-15T11:15:11.380Z,93.16
2022-11-15T11:16:13.562Z,93.32
2022-11-15T11:17:12.742Z,92.75
2022-11-15T11:18:12.263Z,93.26
2022-11-15T11:19:14.516Z,93.47
2022-11-15T11:20:14.785Z,93.37
2022-11-15T11:21:14.878Z,93.37
2022-11-15T11:22:15.072Z,93.22
2022-11-15T11:23:15.806Z,93.22
2022-11-15T11:24:15.964Z,93.01
2022-11-15T11:25:16.157Z,93.12
2022-11-15T11:26:16.335Z,92.81
2022-11-15T11:27:16.535Z,93.01
2022-11-15T11:28:17.376Z,92.71
2022-11-15T11:29:15.657Z,93.41
2022-11-15T11:30:17.847Z,93.67
2022-11-15T11:31:18.114Z,93.52
2022-11-15T11:32:16.516Z,93.06
2022-11-15T11:33:18.706Z,93.26
2022-11-15T11:34:17.115Z,93.22
2022-11-15T11:35:17.458Z,92.81
2022-11-15T11:36:17.798Z,92.91
2022-11-15T11:37:19.988Z,93.01
2022-11-15T11:38:18.397Z,92.85
2022-11-15T11:39:18.754Z,93.01
2022-11-15T11:40:19.078Z,92.85
2022-11-15T11:41:19.431Z,93.16
2022-11-15T11:42:21.606Z,93.06
2022-11-15T11:43:19.900Z,93.26
2022-11-15T11:44:20.238Z,93.06
2022-11-15T11:45:20.575Z,93.47
2022-11-15T11:46:22.763Z,93.01
2022-11-15T11:47:21.179Z,93.01
2022-11-15T11:48:23.386Z,92.60
2022-11-15T11:49:22.747Z,92.81
2022-11-15T11:50:22.905Z,92.46
2022-11-15T11:51:23.313Z,92.15
2022-11-15T11:52:24.539Z,92.36
2022-11-15T11:53:24.703Z,92.05
2022-11-15T11:54:23.108Z,92.50
2022-11-15T11:55:23.454Z,92.56
2022-11-15T11:56:24.636Z,92.19
2022-11-15T11:57:25.991Z,92.56
2022-11-15T11:58:26.155Z,92.15
2022-11-15T11:59:24.566Z,92.15
2022-11-15T12:00:24.903Z,92.10
2022-11-15T12:01:25.246Z,92.60
2022-11-15T12:02:25.726Z,92.15
2022-11-15T12:03:27.764Z,92.25
2022-11-15T12:04:26.171Z,92.60
2022-11-15T12:05:26.510Z,92.56
2022-11-15T12:06:26.850Z,92.60
2022-11-15T12:07:27.259Z,92.50
2022-11-15T12:08:29.845Z,92.56
2022-11-15T12:09:27.786Z,92.15
2022-11-15T12:10:28.110Z,92.46
2022-11-15T12:11:28.456Z,92.46
2022-11-15T12:12:28.801Z,92.25
2022-11-15T12:13:30.989Z,92.05
2022-11-15T12:14:29.397Z,92.36
2022-11-15T12:15:31.583Z,92.25
2022-11-15T12:16:31.767Z,92.25
2022-11-15T12:17:30.308Z,92.15
2022-11-15T12:18:30.917Z,91.80
2022-11-15T12:19:30.836Z,91.50
2022-11-15T12:20:33.018Z,91.70
2022-11-15T12:21:33.212Z,92.05
2022-11-15T12:22:33.397Z,91.70
2022-11-15T12:23:33.596Z,91.95
2022-11-15T12:24:34.277Z,92.46
2022-11-15T12:25:34.464Z,92.21
2022-11-15T12:26:34.622Z,91.70
2022-11-15T12:27:34.843Z,91.50
2022-11-15T12:28:35.280Z,91.54
2022-11-15T12:29:35.725Z,91.91
2022-11-15T12:30:35.943Z,92.11
2022-11-15T12:31:36.102Z,91.80
2022-11-15T12:32:36.291Z,91.25
2022-11-15T12:33:36.979Z,91.19
2022-11-15T12:34:37.186Z,91.50
2022-11-15T12:35:37.358Z,91.50
2022-11-15T12:36:38.057Z,91.39
2022-11-15T12:37:38.218Z,91.46
2022-11-15T12:38:36.647Z,90.94
2022-11-15T12:39:38.827Z,90.84
2022-11-15T12:40:39.025Z,90.70
2022-11-15T12:41:39.184Z,90.53
2022-11-15T12:42:39.385Z,90.84
2022-11-15T12:43:40.051Z,90.53
2022-11-15T12:44:38.444Z,90.74
2022-11-15T12:45:40.524Z,91.00
2022-11-15T12:46:40.715Z,90.80
2022-11-15T12:47:40.905Z,90.14
2022-11-15T12:48:41.073Z,89.43
2022-11-15T12:49:41.770Z,89.84
2022-11-15T12:50:41.926Z,89.49
2022-11-15T12:51:42.089Z,89.02
2022-11-15T12:52:42.251Z,89.94
2022-11-15T12:53:42.936Z,89.32
2022-11-15T12:54:43.144Z,89.53
2022-11-15T12:55:43.318Z,88.98
2022-11-15T12:56:43.509Z,88.88